sensor_id;sensor_type;location;lat;lon;timestamp;P1;durP1;ratioP1;P2;durP2;ratioP2
18905;SDS011;9585;51.018;4.282;2022-07-01T00:01:46;9.32;;;5.70;;
18905;SDS011;9585;51.018;4.282;2022-07-01T00:04:14;10.05;;;5.72;;
18905;SDS011;9585;51.018;4.282;2022-07-01T00:06:52;11.02;;;5.70;;
18905;SDS011;9585;51.018;4.282;2022-07-01T00:09:20;8.25;;;5.03;;
18905;SDS011;9585;51.018;4.282;2022-07-01T00:11:49;9.77;;;5.70;;
18905;SDS011;9585;51.018;4.282;2022-07-01T00:14:20;11.63;;;6.50;;
18905;SDS011;9585;51.018;4.282;2022-07-01T00:16:48;9.68;;;5.70;;
18905;SDS011;9585;51.018;4.282;2022-07-01T00:19:15;13.25;;;7.18;;
18905;SDS011;9585;51.018;4.282;2022-07-01T00:21:43;9.35;;;6.20;;
18905;SDS011;9585;51.018;4.282;2022-07-01T00:24:10;8.10;;;5.82;;
18905;SDS011;9585;51.018;4.282;2022-07-01T00:26:38;12.07;;;6.78;;
18905;SDS011;9585;51.018;4.282;2022-07-01T00:29:07;8.23;;;5.45;;
18905;SDS011;9585;51.018;4.282;2022-07-01T00:31:34;9.35;;;5.70;;
18905;SDS011;9585;51.018;4.282;2022-07-01T00:34:02;8.85;;;5.53;;
18905;SDS011;9585;51.018;4.282;2022-07-01T00:36:29;12.40;;;6.43;;
18905;SDS011;9585;51.018;4.282;2022-07-01T00:38:57;9.88;;;5.75;;
18905;SDS011;9585;51.018;4.282;2022-07-01T00:41:25;9.02;;;5.78;;
18905;SDS011;9585;51.018;4.282;2022-07-01T00:43:52;8.75;;;5.43;;
18905;SDS011;9585;51.018;4.282;2022-07-01T00:46:21;9.68;;;5.90;;
18905;SDS011;9585;51.018;4.282;2022-07-01T00:48:50;7.05;;;5.38;;
18905;SDS011;9585;51.018;4.282;2022-07-01T00:51:18;8.40;;;6.15;;
18905;SDS011;9585;51.018;4.282;2022-07-01T00:53:46;8.45;;;5.80;;
18905;SDS011;9585;51.018;4.282;2022-07-01T00:56:14;7.95;;;5.90;;
18905;SDS011;9585;51.018;4.282;2022-07-01T00:58:41;6.65;;;5.18;;
18905;SDS011;9585;51.018;4.282;2022-07-01T01:01:09;8.70;;;6.20;;
18905;SDS011;9585;51.018;4.282;2022-07-01T01:03:38;6.95;;;5.10;;
18905;SDS011;9585;51.018;4.282;2022-07-01T01:06:09;7.45;;;5.47;;
18905;SDS011;9585;51.018;4.282;2022-07-01T01:08:36;10.50;;;5.93;;
18905;SDS011;9585;51.018;4.282;2022-07-01T01:11:04;8.30;;;5.88;;
18905;SDS011;9585;51.018;4.282;2022-07-01T01:13:32;8.57;;;5.75;;
18905;SDS011;9585;51.018;4.282;2022-07-01T01:15:59;9.15;;;5.75;;
18905;SDS011;9585;51.018;4.282;2022-07-01T01:18:27;7.60;;;5.05;;
18905;SDS011;9585;51.018;4.282;2022-07-01T01:20:56;10.15;;;6.43;;
18905;SDS011;9585;51.018;4.282;2022-07-01T01:23:23;9.63;;;6.38;;
18905;SDS011;9585;51.018;4.282;2022-07-01T01:25:51;6.93;;;5.80;;
18905;SDS011;9585;51.018;4.282;2022-07-01T01:28:23;11.68;;;7.18;;
18905;SDS011;9585;51.018;4.282;2022-07-01T01:30:55;10.68;;;6.53;;
18905;SDS011;9585;51.018;4.282;2022-07-01T01:33:23;10.20;;;6.25;;
18905;SDS011;9585;51.018;4.282;2022-07-01T01:35:50;9.43;;;6.50;;
18905;SDS011;9585;51.018;4.282;2022-07-01T01:38:19;8.48;;;5.70;;
18905;SDS011;9585;51.018;4.282;2022-07-01T01:40:46;11.70;;;6.72;;
18905;SDS011;9585;51.018;4.282;2022-07-01T01:43:15;8.93;;;6.85;;
18905;SDS011;9585;51.018;4.282;2022-07-01T01:45:42;12.10;;;6.63;;
18905;SDS011;9585;51.018;4.282;2022-07-01T01:48:10;9.10;;;6.68;;
18905;SDS011;9585;51.018;4.282;2022-07-01T01:50:37;9.82;;;6.28;;
18905;SDS011;9585;51.018;4.282;2022-07-01T01:53:04;9.18;;;6.32;;
18905;SDS011;9585;51.018;4.282;2022-07-01T01:55:35;11.93;;;7.03;;
18905;SDS011;9585;51.018;4.282;2022-07-01T01:58:02;9.32;;;7.07;;
18905;SDS011;9585;51.018;4.282;2022-07-01T02:00:29;10.50;;;6.78;;
18905;SDS011;9585;51.018;4.282;2022-07-01T02:02:57;11.65;;;8.45;;
18905;SDS011;9585;51.018;4.282;2022-07-01T02:05:24;10.98;;;8.13;;
18905;SDS011;9585;51.018;4.282;2022-07-01T02:07:52;9.98;;;7.60;;
18905;SDS011;9585;51.018;4.282;2022-07-01T02:10:19;10.73;;;7.93;;
18905;SDS011;9585;51.018;4.282;2022-07-01T02:12:48;11.07;;;7.78;;
18905;SDS011;9585;51.018;4.282;2022-07-01T02:15:19;12.23;;;8.98;;
18905;SDS011;9585;51.018;4.282;2022-07-01T02:17:46;11.52;;;8.32;;
18905;SDS011;9585;51.018;4.282;2022-07-01T02:20:14;11.68;;;8.95;;
18905;SDS011;9585;51.018;4.282;2022-07-01T02:22:42;15.73;;;8.18;;
18905;SDS011;9585;51.018;4.282;2022-07-01T02:25:09;9.50;;;8.00;;
18905;SDS011;9585;51.018;4.282;2022-07-01T02:27:36;11.93;;;8.15;;
18905;SDS011;9585;51.018;4.282;2022-07-01T02:30:06;9.23;;;7.40;;
18905;SDS011;9585;51.018;4.282;2022-07-01T02:32:34;11.43;;;7.88;;
18905;SDS011;9585;51.018;4.282;2022-07-01T02:35:01;12.43;;;8.40;;
18905;SDS011;9585;51.018;4.282;2022-07-01T02:37:29;11.82;;;7.70;;
18905;SDS011;9585;51.018;4.282;2022-07-01T02:39:58;12.45;;;8.68;;
18905;SDS011;9585;51.018;4.282;2022-07-01T02:42:26;10.45;;;7.28;;
18905;SDS011;9585;51.018;4.282;2022-07-01T02:44:56;13.32;;;8.15;;
18905;SDS011;9585;51.018;4.282;2022-07-01T02:47:26;11.77;;;7.82;;
18905;SDS011;9585;51.018;4.282;2022-07-01T02:49:58;11.00;;;7.55;;
18905;SDS011;9585;51.018;4.282;2022-07-01T02:52:26;10.70;;;7.32;;
18905;SDS011;9585;51.018;4.282;2022-07-01T02:54:54;8.20;;;7.28;;
18905;SDS011;9585;51.018;4.282;2022-07-01T02:57:21;8.38;;;7.47;;
18905;SDS011;9585;51.018;4.282;2022-07-01T02:59:49;11.52;;;7.45;;
18905;SDS011;9585;51.018;4.282;2022-07-01T03:02:18;9.77;;;7.38;;
18905;SDS011;9585;51.018;4.282;2022-07-01T03:04:48;9.23;;;7.22;;
18905;SDS011;9585;51.018;4.282;2022-07-01T03:07:17;10.55;;;7.47;;
18905;SDS011;9585;51.018;4.282;2022-07-01T03:09:45;11.30;;;7.45;;
18905;SDS011;9585;51.018;4.282;2022-07-01T03:12:13;11.95;;;8.20;;
18905;SDS011;9585;51.018;4.282;2022-07-01T03:14:54;11.73;;;8.45;;
18905;SDS011;9585;51.018;4.282;2022-07-01T03:17:23;14.10;;;8.75;;
18905;SDS011;9585;51.018;4.282;2022-07-01T03:19:52;12.43;;;8.70;;
18905;SDS011;9585;51.018;4.282;2022-07-01T03:22:20;14.50;;;8.60;;
18905;SDS011;9585;51.018;4.282;2022-07-01T03:24:49;9.98;;;7.95;;
18905;SDS011;9585;51.018;4.282;2022-07-01T03:27:17;11.02;;;8.30;;
18905;SDS011;9585;51.018;4.282;2022-07-01T03:29:45;16.05;;;9.82;;
18905;SDS011;9585;51.018;4.282;2022-07-01T03:32:13;12.95;;;9.70;;
18905;SDS011;9585;51.018;4.282;2022-07-01T03:34:42;15.63;;;11.20;;
18905;SDS011;9585;51.018;4.282;2022-07-01T03:37:12;13.00;;;8.35;;
18905;SDS011;9585;51.018;4.282;2022-07-01T03:39:41;10.82;;;7.95;;
18905;SDS011;9585;51.018;4.282;2022-07-01T03:42:10;12.45;;;9.00;;
18905;SDS011;9585;51.018;4.282;2022-07-01T03:44:39;14.30;;;10.63;;
18905;SDS011;9585;51.018;4.282;2022-07-01T03:47:07;12.57;;;9.43;;
18905;SDS011;9585;51.018;4.282;2022-07-01T03:49:34;15.65;;;9.82;;
18905;SDS011;9585;51.018;4.282;2022-07-01T03:52:02;14.85;;;10.13;;
18905;SDS011;9585;51.018;4.282;2022-07-01T03:54:31;12.13;;;9.73;;
18905;SDS011;9585;51.018;4.282;2022-07-01T03:57:04;14.52;;;10.35;;
18905;SDS011;9585;51.018;4.282;2022-07-01T03:59:33;13.02;;;10.23;;
18905;SDS011;9585;51.018;4.282;2022-07-01T04:02:02;14.77;;;9.43;;
18905;SDS011;9585;51.018;4.282;2022-07-01T04:04:31;14.90;;;10.57;;
18905;SDS011;9585;51.018;4.282;2022-07-01T04:06:58;13.23;;;9.50;;
18905;SDS011;9585;51.018;4.282;2022-07-01T04:09:28;16.23;;;9.65;;
18905;SDS011;9585;51.018;4.282;2022-07-01T04:11:57;10.93;;;9.57;;
18905;SDS011;9585;51.018;4.282;2022-07-01T04:14:24;14.40;;;9.88;;
18905;SDS011;9585;51.018;4.282;2022-07-01T04:16:52;14.80;;;10.18;;
18905;SDS011;9585;51.018;4.282;2022-07-01T04:19:20;18.45;;;10.65;;
18905;SDS011;9585;51.018;4.282;2022-07-01T04:21:47;13.07;;;9.70;;
18905;SDS011;9585;51.018;4.282;2022-07-01T04:24:32;15.02;;;9.85;;
18905;SDS011;9585;51.018;4.282;2022-07-01T04:27:01;9.52;;;8.52;;
18905;SDS011;9585;51.018;4.282;2022-07-01T04:29:29;11.95;;;8.98;;
18905;SDS011;9585;51.018;4.282;2022-07-01T04:31:57;13.68;;;10.50;;
18905;SDS011;9585;51.018;4.282;2022-07-01T04:34:25;10.18;;;8.60;;
18905;SDS011;9585;51.018;4.282;2022-07-01T04:36:52;11.30;;;8.32;;
18905;SDS011;9585;51.018;4.282;2022-07-01T04:39:21;10.38;;;8.52;;
18905;SDS011;9585;51.018;4.282;2022-07-01T04:41:48;9.75;;;8.10;;
18905;SDS011;9585;51.018;4.282;2022-07-01T04:44:30;12.48;;;9.43;;
18905;SDS011;9585;51.018;4.282;2022-07-01T04:46:59;13.05;;;9.40;;
18905;SDS011;9585;51.018;4.282;2022-07-01T04:49:27;10.43;;;9.30;;
18905;SDS011;9585;51.018;4.282;2022-07-01T04:51:55;10.95;;;9.50;;
18905;SDS011;9585;51.018;4.282;2022-07-01T04:54:23;15.82;;;10.23;;
18905;SDS011;9585;51.018;4.282;2022-07-01T04:56:51;12.05;;;10.25;;
18905;SDS011;9585;51.018;4.282;2022-07-01T04:59:19;10.93;;;9.52;;
18905;SDS011;9585;51.018;4.282;2022-07-01T05:01:48;11.65;;;10.00;;
18905;SDS011;9585;51.018;4.282;2022-07-01T05:04:18;13.40;;;11.50;;
18905;SDS011;9585;51.018;4.282;2022-07-01T05:06:46;13.93;;;10.68;;
18905;SDS011;9585;51.018;4.282;2022-07-01T05:09:14;12.20;;;10.90;;
18905;SDS011;9585;51.018;4.282;2022-07-01T05:11:45;13.02;;;10.55;;
18905;SDS011;9585;51.018;4.282;2022-07-01T05:14:12;10.70;;;9.35;;
18905;SDS011;9585;51.018;4.282;2022-07-01T05:16:39;11.38;;;8.00;;
18905;SDS011;9585;51.018;4.282;2022-07-01T05:19:11;8.00;;;7.10;;
18905;SDS011;9585;51.018;4.282;2022-07-01T05:21:55;8.02;;;6.72;;
18905;SDS011;9585;51.018;4.282;2022-07-01T05:24:23;7.78;;;5.78;;
18905;SDS011;9585;51.018;4.282;2022-07-01T05:26:53;9.77;;;5.95;;
18905;SDS011;9585;51.018;4.282;2022-07-01T05:29:20;7.97;;;5.43;;
18905;SDS011;9585;51.018;4.282;2022-07-01T05:31:51;10.18;;;5.80;;
18905;SDS011;9585;51.018;4.282;2022-07-01T05:34:20;6.32;;;5.35;;
18905;SDS011;9585;51.018;4.282;2022-07-01T05:36:47;6.82;;;4.75;;
18905;SDS011;9585;51.018;4.282;2022-07-01T05:39:14;5.00;;;3.75;;
18905;SDS011;9585;51.018;4.282;2022-07-01T05:41:42;5.78;;;3.80;;
18905;SDS011;9585;51.018;4.282;2022-07-01T05:44:10;3.58;;;2.65;;
18905;SDS011;9585;51.018;4.282;2022-07-01T05:46:38;4.03;;;2.42;;
18905;SDS011;9585;51.018;4.282;2022-07-01T05:49:05;4.22;;;2.72;;
18905;SDS011;9585;51.018;4.282;2022-07-01T05:51:38;3.58;;;2.08;;
18905;SDS011;9585;51.018;4.282;2022-07-01T05:54:07;5.35;;;2.60;;
18905;SDS011;9585;51.018;4.282;2022-07-01T05:56:35;2.92;;;2.00;;
18905;SDS011;9585;51.018;4.282;2022-07-01T05:59:02;3.75;;;1.90;;
18905;SDS011;9585;51.018;4.282;2022-07-01T06:01:34;5.90;;;2.10;;
18905;SDS011;9585;51.018;4.282;2022-07-01T06:04:01;3.17;;;1.73;;
18905;SDS011;9585;51.018;4.282;2022-07-01T06:06:29;3.92;;;1.70;;
18905;SDS011;9585;51.018;4.282;2022-07-01T06:09:01;5.13;;;1.85;;
18905;SDS011;9585;51.018;4.282;2022-07-01T06:11:29;3.97;;;1.38;;
18905;SDS011;9585;51.018;4.282;2022-07-01T06:13:57;2.83;;;1.50;;
18905;SDS011;9585;51.018;4.282;2022-07-01T06:16:49;3.05;;;1.10;;
18905;SDS011;9585;51.018;4.282;2022-07-01T06:19:17;2.28;;;1.30;;
18905;SDS011;9585;51.018;4.282;2022-07-01T06:21:45;4.72;;;1.42;;
18905;SDS011;9585;51.018;4.282;2022-07-01T06:24:15;2.30;;;0.98;;
18905;SDS011;9585;51.018;4.282;2022-07-01T06:26:42;3.28;;;1.00;;
18905;SDS011;9585;51.018;4.282;2022-07-01T06:29:12;2.38;;;1.02;;
18905;SDS011;9585;51.018;4.282;2022-07-01T06:31:39;2.55;;;1.27;;
18905;SDS011;9585;51.018;4.282;2022-07-01T06:34:07;1.67;;;0.85;;
18905;SDS011;9585;51.018;4.282;2022-07-01T06:36:46;2.25;;;0.80;;
18905;SDS011;9585;51.018;4.282;2022-07-01T06:39:23;3.40;;;1.20;;
18905;SDS011;9585;51.018;4.282;2022-07-01T06:41:51;2.10;;;1.00;;
18905;SDS011;9585;51.018;4.282;2022-07-01T06:44:27;3.83;;;1.17;;
18905;SDS011;9585;51.018;4.282;2022-07-01T06:46:58;2.20;;;0.95;;
18905;SDS011;9585;51.018;4.282;2022-07-01T06:49:26;3.17;;;0.98;;
18905;SDS011;9585;51.018;4.282;2022-07-01T06:51:54;4.90;;;1.08;;
18905;SDS011;9585;51.018;4.282;2022-07-01T06:57:11;4.63;;;1.20;;
18905;SDS011;9585;51.018;4.282;2022-07-01T06:59:41;1.83;;;0.90;;
18905;SDS011;9585;51.018;4.282;2022-07-01T07:02:09;2.88;;;0.98;;
18905;SDS011;9585;51.018;4.282;2022-07-01T07:04:47;3.60;;;1.00;;
18905;SDS011;9585;51.018;4.282;2022-07-01T07:07:19;3.33;;;0.90;;
18905;SDS011;9585;51.018;4.282;2022-07-01T07:09:49;1.80;;;0.70;;
18905;SDS011;9585;51.018;4.282;2022-07-01T07:12:36;3.22;;;1.05;;
18905;SDS011;9585;51.018;4.282;2022-07-01T07:15:03;5.35;;;1.10;;
18905;SDS011;9585;51.018;4.282;2022-07-01T07:17:32;3.70;;;1.02;;
18905;SDS011;9585;51.018;4.282;2022-07-01T07:19:59;4.20;;;0.95;;
18905;SDS011;9585;51.018;4.282;2022-07-01T07:22:29;3.63;;;0.93;;
18905;SDS011;9585;51.018;4.282;2022-07-01T07:24:56;3.55;;;1.00;;
18905;SDS011;9585;51.018;4.282;2022-07-01T07:27:26;4.35;;;0.95;;
18905;SDS011;9585;51.018;4.282;2022-07-01T07:29:55;2.80;;;0.80;;
18905;SDS011;9585;51.018;4.282;2022-07-01T07:32:23;3.53;;;0.90;;
18905;SDS011;9585;51.018;4.282;2022-07-01T07:34:52;1.83;;;0.82;;
18905;SDS011;9585;51.018;4.282;2022-07-01T07:37:20;2.30;;;1.00;;
18905;SDS011;9585;51.018;4.282;2022-07-01T07:39:48;3.28;;;1.10;;
18905;SDS011;9585;51.018;4.282;2022-07-01T07:42:16;2.70;;;0.85;;
18905;SDS011;9585;51.018;4.282;2022-07-01T07:44:44;3.25;;;1.02;;
18905;SDS011;9585;51.018;4.282;2022-07-01T07:47:20;2.33;;;0.90;;
18905;SDS011;9585;51.018;4.282;2022-07-01T07:49:47;4.28;;;1.10;;
18905;SDS011;9585;51.018;4.282;2022-07-01T07:52:18;3.22;;;0.98;;
18905;SDS011;9585;51.018;4.282;2022-07-01T07:54:46;3.42;;;1.15;;
18905;SDS011;9585;51.018;4.282;2022-07-01T07:57:18;2.45;;;0.85;;
18905;SDS011;9585;51.018;4.282;2022-07-01T07:59:48;1.85;;;0.90;;
18905;SDS011;9585;51.018;4.282;2022-07-01T08:02:23;3.33;;;1.00;;
18905;SDS011;9585;51.018;4.282;2022-07-01T08:04:51;2.85;;;0.90;;
18905;SDS011;9585;51.018;4.282;2022-07-01T08:10:39;2.83;;;1.15;;
18905;SDS011;9585;51.018;4.282;2022-07-01T08:13:09;2.35;;;0.90;;
18905;SDS011;9585;51.018;4.282;2022-07-01T08:15:55;3.20;;;0.93;;
18905;SDS011;9585;51.018;4.282;2022-07-01T08:18:26;2.33;;;1.00;;
18905;SDS011;9585;51.018;4.282;2022-07-01T08:21:03;2.45;;;1.00;;
18905;SDS011;9585;51.018;4.282;2022-07-01T08:23:32;2.90;;;1.00;;
18905;SDS011;9585;51.018;4.282;2022-07-01T08:26:00;2.70;;;0.95;;
18905;SDS011;9585;51.018;4.282;2022-07-01T08:28:29;2.28;;;0.80;;
18905;SDS011;9585;51.018;4.282;2022-07-01T08:30:57;3.10;;;1.00;;
18905;SDS011;9585;51.018;4.282;2022-07-01T08:33:26;3.35;;;0.85;;
18905;SDS011;9585;51.018;4.282;2022-07-01T08:35:57;3.95;;;0.90;;
18905;SDS011;9585;51.018;4.282;2022-07-01T08:38:26;3.88;;;1.30;;
18905;SDS011;9585;51.018;4.282;2022-07-01T08:40:53;1.88;;;0.80;;
18905;SDS011;9585;51.018;4.282;2022-07-01T08:43:21;3.60;;;0.85;;
18905;SDS011;9585;51.018;4.282;2022-07-01T08:45:49;4.68;;;0.90;;
18905;SDS011;9585;51.018;4.282;2022-07-01T08:48:19;2.22;;;0.93;;
18905;SDS011;9585;51.018;4.282;2022-07-01T08:50:49;2.60;;;0.80;;
18905;SDS011;9585;51.018;4.282;2022-07-01T08:53:16;1.85;;;0.85;;
18905;SDS011;9585;51.018;4.282;2022-07-01T08:55:46;2.60;;;0.90;;
18905;SDS011;9585;51.018;4.282;2022-07-01T08:58:31;4.32;;;1.02;;
18905;SDS011;9585;51.018;4.282;2022-07-01T09:01:14;3.05;;;1.00;;
18905;SDS011;9585;51.018;4.282;2022-07-01T09:03:43;2.25;;;0.63;;
18905;SDS011;9585;51.018;4.282;2022-07-01T09:06:14;2.28;;;0.95;;
18905;SDS011;9585;51.018;4.282;2022-07-01T09:08:45;2.45;;;0.80;;
18905;SDS011;9585;51.018;4.282;2022-07-01T09:11:14;3.55;;;1.00;;
18905;SDS011;9585;51.018;4.282;2022-07-01T09:13:42;2.10;;;0.85;;
18905;SDS011;9585;51.018;4.282;2022-07-01T09:16:12;2.00;;;0.60;;
18905;SDS011;9585;51.018;4.282;2022-07-01T09:18:41;2.78;;;0.80;;
18905;SDS011;9585;51.018;4.282;2022-07-01T09:21:29;2.33;;;1.00;;
18905;SDS011;9585;51.018;4.282;2022-07-01T09:23:58;35.08;;;29.13;;
18905;SDS011;9585;51.018;4.282;2022-07-01T09:26:32;3.25;;;1.42;;
18905;SDS011;9585;51.018;4.282;2022-07-01T09:29:00;2.65;;;1.05;;
18905;SDS011;9585;51.018;4.282;2022-07-01T09:31:30;2.33;;;0.73;;
18905;SDS011;9585;51.018;4.282;2022-07-01T09:34:03;4.55;;;0.88;;
18905;SDS011;9585;51.018;4.282;2022-07-01T09:36:33;2.88;;;0.70;;
18905;SDS011;9585;51.018;4.282;2022-07-01T09:39:05;2.47;;;1.00;;
18905;SDS011;9585;51.018;4.282;2022-07-01T09:41:36;3.67;;;0.80;;
18905;SDS011;9585;51.018;4.282;2022-07-01T09:44:04;5.93;;;1.08;;
18905;SDS011;9585;51.018;4.282;2022-07-01T09:46:32;1.23;;;0.70;;
18905;SDS011;9585;51.018;4.282;2022-07-01T09:49:00;3.92;;;0.85;;
18905;SDS011;9585;51.018;4.282;2022-07-01T09:51:28;1.98;;;0.63;;
18905;SDS011;9585;51.018;4.282;2022-07-01T09:53:57;2.42;;;0.60;;
18905;SDS011;9585;51.018;4.282;2022-07-01T09:56:24;4.03;;;0.70;;
18905;SDS011;9585;51.018;4.282;2022-07-01T09:58:52;3.85;;;0.80;;
18905;SDS011;9585;51.018;4.282;2022-07-01T10:01:19;2.92;;;0.75;;
18905;SDS011;9585;51.018;4.282;2022-07-01T10:03:48;1.92;;;0.60;;
18905;SDS011;9585;51.018;4.282;2022-07-01T10:09:34;1.77;;;0.73;;
18905;SDS011;9585;51.018;4.282;2022-07-01T10:15:02;4.00;;;0.80;;
18905;SDS011;9585;51.018;4.282;2022-07-01T10:17:34;2.28;;;1.08;;
18905;SDS011;9585;51.018;4.282;2022-07-01T10:20:07;2.53;;;0.85;;
18905;SDS011;9585;51.018;4.282;2022-07-01T10:22:37;1.08;;;0.90;;
18905;SDS011;9585;51.018;4.282;2022-07-01T10:28:13;3.00;;;1.20;;
18905;SDS011;9585;51.018;4.282;2022-07-01T10:30:53;1.85;;;0.90;;
18905;SDS011;9585;51.018;4.282;2022-07-01T10:33:31;1.60;;;0.80;;
18905;SDS011;9585;51.018;4.282;2022-07-01T10:36:06;3.13;;;0.95;;
18905;SDS011;9585;51.018;4.282;2022-07-01T10:38:36;1.67;;;0.90;;
18905;SDS011;9585;51.018;4.282;2022-07-01T10:42:00;2.55;;;0.70;;
18905;SDS011;9585;51.018;4.282;2022-07-01T10:44:29;2.92;;;0.85;;
18905;SDS011;9585;51.018;4.282;2022-07-01T10:47:02;2.85;;;0.70;;
18905;SDS011;9585;51.018;4.282;2022-07-01T10:52:18;5.03;;;0.70;;
18905;SDS011;9585;51.018;4.282;2022-07-01T10:54:46;3.33;;;1.27;;
18905;SDS011;9585;51.018;4.282;2022-07-01T10:57:20;2.78;;;0.80;;
18905;SDS011;9585;51.018;4.282;2022-07-01T11:03:16;2.35;;;0.70;;
18905;SDS011;9585;51.018;4.282;2022-07-01T11:05:45;2.63;;;0.80;;
18905;SDS011;9585;51.018;4.282;2022-07-01T11:08:14;2.08;;;0.70;;
18905;SDS011;9585;51.018;4.282;2022-07-01T11:10:48;1.58;;;0.68;;
18905;SDS011;9585;51.018;4.282;2022-07-01T11:13:19;2.10;;;0.60;;
18905;SDS011;9585;51.018;4.282;2022-07-01T11:15:51;2.92;;;0.55;;
18905;SDS011;9585;51.018;4.282;2022-07-01T11:18:19;2.10;;;1.00;;
18905;SDS011;9585;51.018;4.282;2022-07-01T11:20:46;1.88;;;0.60;;
18905;SDS011;9585;51.018;4.282;2022-07-01T11:23:14;3.22;;;0.65;;
18905;SDS011;9585;51.018;4.282;2022-07-01T11:25:42;2.70;;;0.50;;
18905;SDS011;9585;51.018;4.282;2022-07-01T11:28:10;2.03;;;0.60;;
18905;SDS011;9585;51.018;4.282;2022-07-01T11:30:39;3.65;;;0.50;;
18905;SDS011;9585;51.018;4.282;2022-07-01T11:33:07;3.25;;;0.68;;
18905;SDS011;9585;51.018;4.282;2022-07-01T11:35:35;2.13;;;0.57;;
18905;SDS011;9585;51.018;4.282;2022-07-01T11:38:21;3.08;;;0.50;;
18905;SDS011;9585;51.018;4.282;2022-07-01T11:41:08;2.75;;;0.65;;
18905;SDS011;9585;51.018;4.282;2022-07-01T11:43:43;1.85;;;0.60;;
18905;SDS011;9585;51.018;4.282;2022-07-01T11:46:12;1.15;;;0.40;;
18905;SDS011;9585;51.018;4.282;2022-07-01T11:48:40;1.63;;;0.55;;
18905;SDS011;9585;51.018;4.282;2022-07-01T11:51:10;2.00;;;0.50;;
18905;SDS011;9585;51.018;4.282;2022-07-01T11:53:40;2.25;;;0.65;;
18905;SDS011;9585;51.018;4.282;2022-07-01T11:56:09;2.10;;;0.68;;
18905;SDS011;9585;51.018;4.282;2022-07-01T11:58:44;1.77;;;0.50;;
18905;SDS011;9585;51.018;4.282;2022-07-01T12:01:29;1.38;;;0.50;;
18905;SDS011;9585;51.018;4.282;2022-07-01T12:03:58;3.47;;;0.60;;
18905;SDS011;9585;51.018;4.282;2022-07-01T12:06:27;1.10;;;0.57;;
18905;SDS011;9585;51.018;4.282;2022-07-01T12:08:56;1.05;;;0.40;;
18905;SDS011;9585;51.018;4.282;2022-07-01T12:11:24;1.45;;;0.50;;
18905;SDS011;9585;51.018;4.282;2022-07-01T12:13:53;0.70;;;0.40;;
18905;SDS011;9585;51.018;4.282;2022-07-01T12:16:23;2.30;;;0.68;;
18905;SDS011;9585;51.018;4.282;2022-07-01T12:18:52;1.42;;;0.50;;
18905;SDS011;9585;51.018;4.282;2022-07-01T12:21:21;1.20;;;0.60;;
18905;SDS011;9585;51.018;4.282;2022-07-01T12:24:06;1.58;;;0.50;;
18905;SDS011;9585;51.018;4.282;2022-07-01T12:26:46;2.03;;;0.60;;
18905;SDS011;9585;51.018;4.282;2022-07-01T12:29:15;1.80;;;0.50;;
18905;SDS011;9585;51.018;4.282;2022-07-01T12:31:53;2.60;;;0.63;;
18905;SDS011;9585;51.018;4.282;2022-07-01T12:34:36;2.72;;;0.50;;
18905;SDS011;9585;51.018;4.282;2022-07-01T12:37:11;1.52;;;0.65;;
18905;SDS011;9585;51.018;4.282;2022-07-01T12:39:44;2.05;;;0.65;;
18905;SDS011;9585;51.018;4.282;2022-07-01T12:42:25;2.53;;;0.70;;
18905;SDS011;9585;51.018;4.282;2022-07-01T12:44:54;1.60;;;0.50;;
18905;SDS011;9585;51.018;4.282;2022-07-01T12:47:28;3.33;;;0.43;;
18905;SDS011;9585;51.018;4.282;2022-07-01T12:50:09;1.63;;;0.55;;
18905;SDS011;9585;51.018;4.282;2022-07-01T12:52:42;1.67;;;0.60;;
18905;SDS011;9585;51.018;4.282;2022-07-01T12:55:13;2.28;;;0.52;;
18905;SDS011;9585;51.018;4.282;2022-07-01T12:57:42;3.13;;;0.80;;
18905;SDS011;9585;51.018;4.282;2022-07-01T13:00:10;2.55;;;0.65;;
18905;SDS011;9585;51.018;4.282;2022-07-01T13:02:40;1.92;;;0.50;;
18905;SDS011;9585;51.018;4.282;2022-07-01T13:05:11;2.75;;;0.70;;
18905;SDS011;9585;51.018;4.282;2022-07-01T13:07:39;2.38;;;0.55;;
18905;SDS011;9585;51.018;4.282;2022-07-01T13:10:08;1.10;;;0.47;;
18905;SDS011;9585;51.018;4.282;2022-07-01T13:12:35;2.15;;;0.70;;
18905;SDS011;9585;51.018;4.282;2022-07-01T13:15:21;1.95;;;0.70;;
18905;SDS011;9585;51.018;4.282;2022-07-01T13:17:50;2.72;;;0.57;;
18905;SDS011;9585;51.018;4.282;2022-07-01T13:20:18;2.92;;;0.60;;
18905;SDS011;9585;51.018;4.282;2022-07-01T13:22:46;1.80;;;0.60;;
18905;SDS011;9585;51.018;4.282;2022-07-01T13:25:14;2.35;;;0.73;;
18905;SDS011;9585;51.018;4.282;2022-07-01T13:27:42;3.90;;;0.63;;
18905;SDS011;9585;51.018;4.282;2022-07-01T13:30:10;3.20;;;0.60;;
18905;SDS011;9585;51.018;4.282;2022-07-01T13:32:38;4.38;;;0.80;;
18905;SDS011;9585;51.018;4.282;2022-07-01T13:35:08;4.38;;;0.80;;
18905;SDS011;9585;51.018;4.282;2022-07-01T13:37:37;2.75;;;0.63;;
18905;SDS011;9585;51.018;4.282;2022-07-01T13:40:06;1.75;;;0.80;;
18905;SDS011;9585;51.018;4.282;2022-07-01T13:42:34;2.10;;;0.80;;
18905;SDS011;9585;51.018;4.282;2022-07-01T13:45:01;2.33;;;0.90;;
18905;SDS011;9585;51.018;4.282;2022-07-01T13:47:29;1.58;;;0.70;;
18905;SDS011;9585;51.018;4.282;2022-07-01T13:49:56;3.20;;;0.85;;
18905;SDS011;9585;51.018;4.282;2022-07-01T13:52:25;2.70;;;0.85;;
18905;SDS011;9585;51.018;4.282;2022-07-01T13:54:54;3.08;;;0.70;;
18905;SDS011;9585;51.018;4.282;2022-07-01T13:57:21;1.17;;;0.70;;
18905;SDS011;9585;51.018;4.282;2022-07-01T13:59:49;1.50;;;0.80;;
18905;SDS011;9585;51.018;4.282;2022-07-01T14:02:17;1.35;;;0.88;;
18905;SDS011;9585;51.018;4.282;2022-07-01T14:04:45;2.08;;;0.80;;
18905;SDS011;9585;51.018;4.282;2022-07-01T14:07:12;2.20;;;0.95;;
18905;SDS011;9585;51.018;4.282;2022-07-01T14:09:41;2.15;;;0.70;;
18905;SDS011;9585;51.018;4.282;2022-07-01T14:12:10;2.92;;;0.80;;
18905;SDS011;9585;51.018;4.282;2022-07-01T14:14:40;2.88;;;1.13;;
18905;SDS011;9585;51.018;4.282;2022-07-01T14:17:08;2.75;;;0.90;;
18905;SDS011;9585;51.018;4.282;2022-07-01T14:19:35;3.58;;;0.93;;
18905;SDS011;9585;51.018;4.282;2022-07-01T14:22:03;2.05;;;0.77;;
18905;SDS011;9585;51.018;4.282;2022-07-01T14:24:31;2.40;;;0.90;;
18905;SDS011;9585;51.018;4.282;2022-07-01T14:27:00;2.03;;;0.70;;
18905;SDS011;9585;51.018;4.282;2022-07-01T14:29:27;2.67;;;1.00;;
18905;SDS011;9585;51.018;4.282;2022-07-01T14:31:55;2.38;;;0.85;;
18905;SDS011;9585;51.018;4.282;2022-07-01T14:34:24;2.80;;;0.82;;
18905;SDS011;9585;51.018;4.282;2022-07-01T14:36:52;4.28;;;0.95;;
18905;SDS011;9585;51.018;4.282;2022-07-01T14:39:19;3.00;;;0.70;;
18905;SDS011;9585;51.018;4.282;2022-07-01T14:41:46;3.38;;;0.90;;
18905;SDS011;9585;51.018;4.282;2022-07-01T14:44:17;3.25;;;0.68;;
18905;SDS011;9585;51.018;4.282;2022-07-01T14:46:45;2.55;;;0.75;;
18905;SDS011;9585;51.018;4.282;2022-07-01T14:49:12;2.60;;;0.80;;
18905;SDS011;9585;51.018;4.282;2022-07-01T14:51:42;3.15;;;0.77;;
18905;SDS011;9585;51.018;4.282;2022-07-01T14:54:10;2.47;;;0.65;;
18905;SDS011;9585;51.018;4.282;2022-07-01T14:56:38;2.63;;;0.63;;
18905;SDS011;9585;51.018;4.282;2022-07-01T14:59:05;2.97;;;0.95;;
18905;SDS011;9585;51.018;4.282;2022-07-01T15:01:34;3.55;;;1.23;;
18905;SDS011;9585;51.018;4.282;2022-07-01T15:04:02;1.83;;;0.70;;
18905;SDS011;9585;51.018;4.282;2022-07-01T15:06:30;3.03;;;0.90;;
18905;SDS011;9585;51.018;4.282;2022-07-01T15:08:59;2.60;;;1.00;;
18905;SDS011;9585;51.018;4.282;2022-07-01T15:11:26;3.42;;;0.90;;
18905;SDS011;9585;51.018;4.282;2022-07-01T15:13:53;3.55;;;0.75;;
18905;SDS011;9585;51.018;4.282;2022-07-01T15:16:21;3.05;;;1.10;;
18905;SDS011;9585;51.018;4.282;2022-07-01T15:18:51;2.65;;;0.68;;
18905;SDS011;9585;51.018;4.282;2022-07-01T15:21:19;2.85;;;0.60;;
18905;SDS011;9585;51.018;4.282;2022-07-01T15:23:46;2.80;;;0.65;;
18905;SDS011;9585;51.018;4.282;2022-07-01T15:26:14;2.55;;;0.75;;
18905;SDS011;9585;51.018;4.282;2022-07-01T15:28:41;2.97;;;0.80;;
18905;SDS011;9585;51.018;4.282;2022-07-01T15:31:09;2.20;;;0.80;;
18905;SDS011;9585;51.018;4.282;2022-07-01T15:33:36;2.35;;;0.70;;
18905;SDS011;9585;51.018;4.282;2022-07-01T15:36:05;2.28;;;0.88;;